sensor_id;sensor_type;location;lat;lon;timestamp;temperature;humidity
43227;DHT22;28839;52.404;9.808;2024-03-07T00:03:01;2.00;99.90
43227;DHT22;28839;52.404;9.808;2024-03-07T00:09:57;1.90;99.90
43227;DHT22;28839;52.404;9.808;2024-03-07T00:16:51;1.90;99.90
43227;DHT22;28839;52.404;9.808;2024-03-07T00:23:45;2.00;99.90
43227;DHT22;28839;52.404;9.808;2024-03-07T00:30:40;1.80;99.90
43227;DHT22;28839;52.404;9.808;2024-03-07T00:37:35;1.70;99.90
43227;DHT22;28839;52.404;9.808;2024-03-07T00:44:29;1.60;99.90
43227;DHT22;28839;52.404;9.808;2024-03-07T00:51:24;1.40;99.90
43227;DHT22;28839;52.404;9.808;2024-03-07T00:58:18;1.20;99.90
43227;DHT22;28839;52.404;9.808;2024-03-07T01:05:12;1.10;99.90
43227;DHT22;28839;52.404;9.808;2024-03-07T01:12:08;1.30;99.90
43227;DHT22;28839;52.404;9.808;2024-03-07T01:19:02;1.40;99.90
43227;DHT22;28839;52.404;9.808;2024-03-07T01:25:58;1.30;99.90
43227;DHT22;28839;52.404;9.808;2024-03-07T01:32:54;1.30;99.90
43227;DHT22;28839;52.404;9.808;2024-03-07T01:39:47;1.30;99.90
43227;DHT22;28839;52.404;9.808;2024-03-07T01:46:41;1.30;99.90
43227;DHT22;28839;52.404;9.808;2024-03-07T01:53:36;1.20;99.90
43227;DHT22;28839;52.404;9.808;2024-03-07T02:00:31;1.20;99.90
43227;DHT22;28839;52.404;9.808;2024-03-07T02:07:24;1.10;99.90
43227;DHT22;28839;52.404;9.808;2024-03-07T02:14:20;1.00;99.90
43227;DHT22;28839;52.404;9.808;2024-03-07T02:21:15;0.90;99.90
43227;DHT22;28839;52.404;9.808;2024-03-07T02:28:09;0.90;99.90
43227;DHT22;28839;52.404;9.808;2024-03-07T02:35:04;0.80;99.90
43227;DHT22;28839;52.404;9.808;2024-03-07T02:41:59;0.70;99.90
43227;DHT22;28839;52.404;9.808;2024-03-07T02:48:53;0.80;99.90
43227;DHT22;28839;52.404;9.808;2024-03-07T02:55:47;0.70;99.90
43227;DHT22;28839;52.404;9.808;2024-03-07T03:02:43;0.60;99.90
43227;DHT22;28839;52.404;9.808;2024-03-07T03:09:37;0.40;99.90
43227;DHT22;28839;52.404;9.808;2024-03-07T03:16:35;0.50;99.90
43227;DHT22;28839;52.404;9.808;2024-03-07T03:23:30;0.60;99.90
43227;DHT22;28839;52.404;9.808;2024-03-07T03:30:24;0.70;99.90
43227;DHT22;28839;52.404;9.808;2024-03-07T03:37:19;0.80;99.90
43227;DHT22;28839;52.404;9.808;2024-03-07T03:44:14;1.00;99.90
43227;DHT22;28839;52.404;9.808;2024-03-07T03:51:07;1.10;99.90
43227;DHT22;28839;52.404;9.808;2024-03-07T03:58:01;1.10;99.90
43227;DHT22;28839;52.404;9.808;2024-03-07T04:04:59;1.10;99.90
43227;DHT22;28839;52.404;9.808;2024-03-07T04:11:53;1.20;99.90
43227;DHT22;28839;52.404;9.808;2024-03-07T04:18:47;1.20;99.90
43227;DHT22;28839;52.404;9.808;2024-03-07T04:25:42;1.20;99.90
43227;DHT22;28839;52.404;9.808;2024-03-07T04:32:36;1.30;99.90
43227;DHT22;28839;52.404;9.808;2024-03-07T04:39:30;1.40;99.90
43227;DHT22;28839;52.404;9.808;2024-03-07T04:46:27;1.50;99.90
43227;DHT22;28839;52.404;9.808;2024-03-07T04:53:20;1.50;99.90
43227;DHT22;28839;52.404;9.808;2024-03-07T05:00:15;1.50;99.90
43227;DHT22;28839;52.404;9.808;2024-03-07T05:07:12;1.60;99.90
43227;DHT22;28839;52.404;9.808;2024-03-07T05:14:07;1.60;99.90
43227;DHT22;28839;52.404;9.808;2024-03-07T05:21:01;1.70;99.90
43227;DHT22;28839;52.404;9.808;2024-03-07T05:28:16;1.80;99.90
43227;DHT22;28839;52.404;9.808;2024-03-07T05:35:11;1.80;99.90
43227;DHT22;28839;52.404;9.808;2024-03-07T05:42:05;2.00;99.90
43227;DHT22;28839;52.404;9.808;2024-03-07T05:49:00;2.00;99.90
43227;DHT22;28839;52.404;9.808;2024-03-07T05:55:55;2.10;99.90
43227;DHT22;28839;52.404;9.808;2024-03-07T06:02:49;2.20;99.90
43227;DHT22;28839;52.404;9.808;2024-03-07T06:09:44;2.30;99.90
43227;DHT22;28839;52.404;9.808;2024-03-07T06:16:39;2.40;99.90
43227;DHT22;28839;52.404;9.808;2024-03-07T06:23:33;2.50;99.90
43227;DHT22;28839;52.404;9.808;2024-03-07T06:30:28;2.60;99.90
43227;DHT22;28839;52.404;9.808;2024-03-07T06:37:23;2.70;99.90
43227;DHT22;28839;52.404;9.808;2024-03-07T06:44:17;2.80;99.90
43227;DHT22;28839;52.404;9.808;2024-03-07T06:51:17;2.80;99.90
43227;DHT22;28839;52.404;9.808;2024-03-07T06:58:10;3.00;99.90
43227;DHT22;28839;52.404;9.808;2024-03-07T07:05:06;3.00;99.90
43227;DHT22;28839;52.404;9.808;2024-03-07T07:12:05;3.10;99.90
43227;DHT22;28839;52.404;9.808;2024-03-07T07:19:00;3.20;99.90
43227;DHT22;28839;52.404;9.808;2024-03-07T07:25:54;3.20;99.90
43227;DHT22;28839;52.404;9.808;2024-03-07T07:32:50;3.40;99.90
43227;DHT22;28839;52.404;9.808;2024-03-07T07:39:44;3.50;99.90
43227;DHT22;28839;52.404;9.808;2024-03-07T07:46:38;3.70;99.90
43227;DHT22;28839;52.404;9.808;2024-03-07T07:53:34;3.80;99.90
43227;DHT22;28839;52.404;9.808;2024-03-07T08:00:28;4.00;99.90
43227;DHT22;28839;52.404;9.808;2024-03-07T08:07:23;4.10;99.90
43227;DHT22;28839;52.404;9.808;2024-03-07T08:14:18;4.30;99.90
43227;DHT22;28839;52.404;9.808;2024-03-07T08:21:12;4.40;99.90
43227;DHT22;28839;52.404;9.808;2024-03-07T08:28:06;4.50;99.90
43227;DHT22;28839;52.404;9.808;2024-03-07T08:35:01;4.60;99.90
43227;DHT22;28839;52.404;9.808;2024-03-07T08:41:59;4.60;99.90
43227;DHT22;28839;52.404;9.808;2024-03-07T08:48:52;4.70;99.90
43227;DHT22;28839;52.404;9.808;2024-03-07T08:55:48;4.80;99.90
43227;DHT22;28839;52.404;9.808;2024-03-07T09:02:41;4.90;99.90
43227;DHT22;28839;52.404;9.808;2024-03-07T09:09:35;4.90;99.90
43227;DHT22;28839;52.404;9.808;2024-03-07T09:16:30;5.20;99.90
43227;DHT22;28839;52.404;9.808;2024-03-07T09:23:24;5.20;99.90
43227;DHT22;28839;52.404;9.808;2024-03-07T09:30:18;5.30;99.90
43227;DHT22;28839;52.404;9.808;2024-03-07T09:37:18;5.40;99.90
43227;DHT22;28839;52.404;9.808;2024-03-07T09:44:15;5.40;99.90
43227;DHT22;28839;52.404;9.808;2024-03-07T09:51:15;5.30;99.90
43227;DHT22;28839;52.404;9.808;2024-03-07T09:58:12;5.40;99.90
43227;DHT22;28839;52.404;9.808;2024-03-07T10:05:14;5.40;99.90
43227;DHT22;28839;52.404;9.808;2024-03-07T10:12:09;5.40;99.90
43227;DHT22;28839;52.404;9.808;2024-03-07T10:19:06;5.10;99.90
43227;DHT22;28839;52.404;9.808;2024-03-07T10:26:04;5.10;99.90
43227;DHT22;28839;52.404;9.808;2024-03-07T10:32:58;5.10;99.90
43227;DHT22;28839;52.404;9.808;2024-03-07T10:39:54;5.10;99.90
43227;DHT22;28839;52.404;9.808;2024-03-07T10:46:52;5.10;99.90
43227;DHT22;28839;52.404;9.808;2024-03-07T10:53:53;5.20;99.90
43227;DHT22;28839;52.404;9.808;2024-03-07T11:00:56;5.50;99.90
43227;DHT22;28839;52.404;9.808;2024-03-07T11:07:51;5.70;99.90
43227;DHT22;28839;52.404;9.808;2024-03-07T11:14:45;5.40;99.90
43227;DHT22;28839;52.404;9.808;2024-03-07T11:21:44;5.50;99.90
43227;DHT22;28839;52.404;9.808;2024-03-07T11:28:40;5.80;99.90
43227;DHT22;28839;52.404;9.808;2024-03-07T11:35:34;5.90;99.90
43227;DHT22;28839;52.404;9.808;2024-03-07T11:42:29;6.20;99.90
43227;DHT22;28839;52.404;9.808;2024-03-07T11:49:25;6.40;99.90
43227;DHT22;28839;52.404;9.808;2024-03-07T11:56:20;6.40;99.90
43227;DHT22;28839;52.404;9.808;2024-03-07T12:03:16;6.50;99.90
43227;DHT22;28839;52.404;9.808;2024-03-07T12:10:11;6.60;99.90
43227;DHT22;28839;52.404;9.808;2024-03-07T12:17:05;7.60;87.10
43227;DHT22;28839;52.404;9.808;2024-03-07T12:24:11;7.50;53.30
43227;DHT22;28839;52.404;9.808;2024-03-07T12:31:05;7.40;58.30
43227;DHT22;28839;52.404;9.808;2024-03-07T12:38:08;7.30;41.40
43227;DHT22;28839;52.404;9.808;2024-03-07T12:45:05;7.20;79.30
43227;DHT22;28839;52.404;9.808;2024-03-07T12:51:59;6.80;99.90
43227;DHT22;28839;52.404;9.808;2024-03-07T12:58:53;6.90;99.50
43227;DHT22;28839;52.404;9.808;2024-03-07T13:05:50;7.20;96.80
43227;DHT22;28839;52.404;9.808;2024-03-07T13:12:43;7.20;81.90
43227;DHT22;28839;52.404;9.808;2024-03-07T13:19:38;7.10;85.70
43227;DHT22;28839;52.404;9.808;2024-03-07T13:26:35;7.10;83.90
43227;DHT22;28839;52.404;9.808;2024-03-07T13:33:29;6.90;82.00
43227;DHT22;28839;52.404;9.808;2024-03-07T13:40:24;6.90;74.50
43227;DHT22;28839;52.404;9.808;2024-03-07T13:47:19;7.20;48.40
43227;DHT22;28839;52.404;9.808;2024-03-07T13:54:13;7.30;30.40
43227;DHT22;28839;52.404;9.808;2024-03-07T14:01:28;7.30;45.30
43227;DHT22;28839;52.404;9.808;2024-03-07T14:16:18;7.20;48.70
43227;DHT22;28839;52.404;9.808;2024-03-07T14:23:24;7.10;43.50
43227;DHT22;28839;52.404;9.808;2024-03-07T14:30:23;7.30;36.30
43227;DHT22;28839;52.404;9.808;2024-03-07T14:37:23;7.20;15.50
43227;DHT22;28839;52.404;9.808;2024-03-07T14:44:18;7.20;19.50
43227;DHT22;28839;52.404;9.808;2024-03-07T14:51:14;7.00;13.10
43227;DHT22;28839;52.404;9.808;2024-03-07T14:58:07;7.10;27.50
43227;DHT22;28839;52.404;9.808;2024-03-07T15:05:02;7.30;16.10
43227;DHT22;28839;52.404;9.808;2024-03-07T15:11:59;7.50;13.90
43227;DHT22;28839;52.404;9.808;2024-03-07T15:18:52;7.50;11.00
43227;DHT22;28839;52.404;9.808;2024-03-07T15:25:46;7.00;27.00
43227;DHT22;28839;52.404;9.808;2024-03-07T15:32:42;6.90;20.00
43227;DHT22;28839;52.404;9.808;2024-03-07T15:39:36;6.80;24.60
43227;DHT22;28839;52.404;9.808;2024-03-07T15:46:30;6.90;26.20
43227;DHT22;28839;52.404;9.808;2024-03-07T15:53:25;6.90;43.70
43227;DHT22;28839;52.404;9.808;2024-03-07T16:00:21;6.90;35.30
43227;DHT22;28839;52.404;9.808;2024-03-07T16:07:17;6.90;14.50
43227;DHT22;28839;52.404;9.808;2024-03-07T16:14:12;6.90;11.60
43227;DHT22;28839;52.404;9.808;2024-03-07T16:21:06;6.70;24.30
43227;DHT22;28839;52.404;9.808;2024-03-07T16:28:00;6.60;31.40
43227;DHT22;28839;52.404;9.808;2024-03-07T16:34:59;6.40;42.50
43227;DHT22;28839;52.404;9.808;2024-03-07T16:41:54;6.30;46.90
43227;DHT22;28839;52.404;9.808;2024-03-07T16:48:49;6.10;63.50
43227;DHT22;28839;52.404;9.808;2024-03-07T16:55:44;6.10;56.10
43227;DHT22;28839;52.404;9.808;2024-03-07T17:02:39;5.90;63.00
43227;DHT22;28839;52.404;9.808;2024-03-07T17:09:33;5.70;74.30
43227;DHT22;28839;52.404;9.808;2024-03-07T17:16:28;5.60;71.90
43227;DHT22;28839;52.404;9.808;2024-03-07T17:23:22;5.30;80.40
43227;DHT22;28839;52.404;9.808;2024-03-07T17:30:18;5.40;68.90
43227;DHT22;28839;52.404;9.808;2024-03-07T17:37:14;5.20;76.30
43227;DHT22;28839;52.404;9.808;2024-03-07T17:44:08;5.00;80.90
43227;DHT22;28839;52.404;9.808;2024-03-07T17:51:08;4.80;91.20
43227;DHT22;28839;52.404;9.808;2024-03-07T17:58:04;4.70;92.20
43227;DHT22;28839;52.404;9.808;2024-03-07T18:04:58;4.60;92.80
43227;DHT22;28839;52.404;9.808;2024-03-07T18:11:58;4.50;95.00
43227;DHT22;28839;52.404;9.808;2024-03-07T18:18:53;4.50;89.80
43227;DHT22;28839;52.404;9.808;2024-03-07T18:25:48;4.40;92.80
43227;DHT22;28839;52.404;9.808;2024-03-07T18:32:42;4.20;92.50
43227;DHT22;28839;52.404;9.808;2024-03-07T18:39:37;4.20;99.50
43227;DHT22;28839;52.404;9.808;2024-03-07T18:46:34;4.10;98.60
43227;DHT22;28839;52.404;9.808;2024-03-07T18:53:28;3.90;99.90
43227;DHT22;28839;52.404;9.808;2024-03-07T19:00:23;4.00;97.50
43227;DHT22;28839;52.404;9.808;2024-03-07T19:07:29;3.80;99.90
43227;DHT22;28839;52.404;9.808;2024-03-07T19:14:24;3.70;99.90
43227;DHT22;28839;52.404;9.808;2024-03-07T19:21:20;3.70;99.90
43227;DHT22;28839;52.404;9.808;2024-03-07T19:28:14;3.70;99.90
43227;DHT22;28839;52.404;9.808;2024-03-07T19:35:08;3.60;99.90
43227;DHT22;28839;52.404;9.808;2024-03-07T19:42:07;3.70;92.70
43227;DHT22;28839;52.404;9.808;2024-03-07T19:49:02;3.70;86.50
43227;DHT22;28839;52.404;9.808;2024-03-07T19:55:58;3.70;89.20
43227;DHT22;28839;52.404;9.808;2024-03-07T20:02:53;3.90;70.80
43227;DHT22;28839;52.404;9.808;2024-03-07T20:09:48;3.80;79.00
43227;DHT22;28839;52.404;9.808;2024-03-07T20:16:42;3.60;84.00
43227;DHT22;28839;52.404;9.808;2024-03-07T20:23:37;3.40;87.00
43227;DHT22;28839;52.404;9.808;2024-03-07T20:30:32;3.40;92.60
43227;DHT22;28839;52.404;9.808;2024-03-07T20:37:27;3.60;75.20
43227;DHT22;28839;52.404;9.808;2024-03-07T20:44:22;3.60;67.20
43227;DHT22;28839;52.404;9.808;2024-03-07T20:51:17;3.70;54.20
43227;DHT22;28839;52.404;9.808;2024-03-07T20:58:11;3.60;59.40
43227;DHT22;28839;52.404;9.808;2024-03-07T21:05:10;3.40;66.20
43227;DHT22;28839;52.404;9.808;2024-03-07T21:12:04;3.20;77.40
43227;DHT22;28839;52.404;9.808;2024-03-07T21:19:00;3.30;68.60
43227;DHT22;28839;52.404;9.808;2024-03-07T21:25:57;3.10;70.40
43227;DHT22;28839;52.404;9.808;2024-03-07T21:32:50;3.20;62.60
43227;DHT22;28839;52.404;9.808;2024-03-07T21:39:45;3.00;60.90
43227;DHT22;28839;52.404;9.808;2024-03-07T21:46:42;2.90;70.00
43227;DHT22;28839;52.404;9.808;2024-03-07T21:53:37;2.80;68.60
43227;DHT22;28839;52.404;9.808;2024-03-07T22:00:35;2.90;64.80
43227;DHT22;28839;52.404;9.808;2024-03-07T22:07:30;2.70;67.70
43227;DHT22;28839;52.404;9.808;2024-03-07T22:14:24;3.00;57.60
43227;DHT22;28839;52.404;9.808;2024-03-07T22:21:17;2.50;68.10
43227;DHT22;28839;52.404;9.808;2024-03-07T22:28:13;2.60;69.20
43227;DHT22;28839;52.404;9.808;2024-03-07T22:35:07;2.60;65.90
43227;DHT22;28839;52.404;9.808;2024-03-07T22:42:03;2.50;65.50
43227;DHT22;28839;52.404;9.808;2024-03-07T22:48:58;2.40;73.80
43227;DHT22;28839;52.404;9.808;2024-03-07T22:55:52;2.40;78.70
43227;DHT22;28839;52.404;9.808;2024-03-07T23:02:46;2.30;84.60
43227;DHT22;28839;52.404;9.808;2024-03-07T23:09:41;2.20;73.20
43227;DHT22;28839;52.404;9.808;2024-03-07T23:16:35;2.30;67.90
43227;DHT22;28839;52.404;9.808;2024-03-07T23:23:28;2.30;67.50
43227;DHT22;28839;52.404;9.808;2024-03-07T23:30:24;2.30;62.00
43227;DHT22;28839;52.404;9.808;2024-03-07T23:37:18;2.20;64.40
43227;DHT22;28839;52.404;9.808;2024-03-07T23:44:14;2.10;71.80
43227;DHT22;28839;52.404;9.808;2024-03-07T23:51:10;1.90;80.10
43227;DHT22;28839;52.404;9.808;2024-03-07T23:58:04;2.00;76.50
